sensor_id;sensor_type;location;lat;lon;timestamp;temperature;humidity
61201;DHT22;47065;52.898;6.992;2022-12-20T00:01:19;9.40;99.90
61201;DHT22;47065;52.898;6.992;2022-12-20T00:03:45;9.40;99.90
61201;DHT22;47065;52.898;6.992;2022-12-20T00:06:13;9.40;99.90
61201;DHT22;47065;52.898;6.992;2022-12-20T00:08:39;9.40;99.90
61201;DHT22;47065;52.898;6.992;2022-12-20T00:11:06;9.40;99.90
61201;DHT22;47065;52.898;6.992;2022-12-20T00:13:33;9.40;99.90
61201;DHT22;47065;52.898;6.992;2022-12-20T00:18:36;9.30;99.90
61201;DHT22;47065;52.898;6.992;2022-12-20T00:21:03;9.30;99.90
61201;DHT22;47065;52.898;6.992;2022-12-20T00:23:30;9.30;99.90
61201;DHT22;47065;52.898;6.992;2022-12-20T00:26:05;9.30;99.90
61201;DHT22;47065;52.898;6.992;2022-12-20T00:28:32;9.30;99.90
61201;DHT22;47065;52.898;6.992;2022-12-20T00:30:58;9.30;99.90
61201;DHT22;47065;52.898;6.992;2022-12-20T00:33:24;9.20;99.90
61201;DHT22;47065;52.898;6.992;2022-12-20T00:35:49;9.20;99.90
61201;DHT22;47065;52.898;6.992;2022-12-20T00:38:15;9.20;99.90
61201;DHT22;47065;52.898;6.992;2022-12-20T00:40:40;9.20;99.90
61201;DHT22;47065;52.898;6.992;2022-12-20T00:43:06;9.20;99.90
61201;DHT22;47065;52.898;6.992;2022-12-20T00:45:32;9.20;99.90
61201;DHT22;47065;52.898;6.992;2022-12-20T00:47:58;9.20;99.90
61201;DHT22;47065;52.898;6.992;2022-12-20T00:50:23;9.30;99.90
61201;DHT22;47065;52.898;6.992;2022-12-20T00:52:49;9.30;99.90
61201;DHT22;47065;52.898;6.992;2022-12-20T00:55:15;9.30;99.90
61201;DHT22;47065;52.898;6.992;2022-12-20T00:57:40;9.40;99.90
61201;DHT22;47065;52.898;6.992;2022-12-20T01:00:06;9.40;99.90
61201;DHT22;47065;52.898;6.992;2022-12-20T01:02:32;9.40;99.90
61201;DHT22;47065;52.898;6.992;2022-12-20T01:04:58;9.40;99.90
61201;DHT22;47065;52.898;6.992;2022-12-20T01:07:24;9.50;99.90
61201;DHT22;47065;52.898;6.992;2022-12-20T01:09:50;9.50;99.90
61201;DHT22;47065;52.898;6.992;2022-12-20T01:12:16;9.50;99.90
61201;DHT22;47065;52.898;6.992;2022-12-20T01:14:41;9.50;99.90
61201;DHT22;47065;52.898;6.992;2022-12-20T01:17:07;9.60;99.90
61201;DHT22;47065;52.898;6.992;2022-12-20T01:19:33;9.60;99.90
61201;DHT22;47065;52.898;6.992;2022-12-20T01:21:58;9.60;99.90
61201;DHT22;47065;52.898;6.992;2022-12-20T01:24:24;9.60;99.90
61201;DHT22;47065;52.898;6.992;2022-12-20T01:26:50;9.60;99.90
61201;DHT22;47065;52.898;6.992;2022-12-20T01:29:15;9.60;99.90
61201;DHT22;47065;52.898;6.992;2022-12-20T01:31:41;9.60;99.90
61201;DHT22;47065;52.898;6.992;2022-12-20T01:34:07;9.60;99.90
61201;DHT22;47065;52.898;6.992;2022-12-20T01:36:34;9.50;99.90
61201;DHT22;47065;52.898;6.992;2022-12-20T01:39:06;9.50;99.90
61201;DHT22;47065;52.898;6.992;2022-12-20T01:41:33;9.50;99.90
61201;DHT22;47065;52.898;6.992;2022-12-20T01:46:52;9.60;99.90
61201;DHT22;47065;52.898;6.992;2022-12-20T01:49:31;9.60;99.90
61201;DHT22;47065;52.898;6.992;2022-12-20T01:52:08;9.60;99.90
61201;DHT22;47065;52.898;6.992;2022-12-20T01:54:49;9.60;99.90
61201;DHT22;47065;52.898;6.992;2022-12-20T01:57:21;9.60;99.90
61201;DHT22;47065;52.898;6.992;2022-12-20T01:59:49;9.60;99.90
61201;DHT22;47065;52.898;6.992;2022-12-20T02:02:16;9.60;99.90
61201;DHT22;47065;52.898;6.992;2022-12-20T02:04:42;9.70;99.90
61201;DHT22;47065;52.898;6.992;2022-12-20T02:07:11;9.60;99.90
61201;DHT22;47065;52.898;6.992;2022-12-20T02:09:39;9.70;99.90
61201;DHT22;47065;52.898;6.992;2022-12-20T02:12:11;9.70;99.90
61201;DHT22;47065;52.898;6.992;2022-12-20T02:17:44;9.70;99.90
61201;DHT22;47065;52.898;6.992;2022-12-20T02:25:55;9.70;99.90
61201;DHT22;47065;52.898;6.992;2022-12-20T02:29:06;9.80;99.90
61201;DHT22;47065;52.898;6.992;2022-12-20T02:31:42;9.80;99.90
61201;DHT22;47065;52.898;6.992;2022-12-20T02:34:11;9.80;99.90
61201;DHT22;47065;52.898;6.992;2022-12-20T02:36:38;9.80;99.90
61201;DHT22;47065;52.898;6.992;2022-12-20T02:39:04;9.80;99.90
61201;DHT22;47065;52.898;6.992;2022-12-20T02:41:37;9.90;99.90
61201;DHT22;47065;52.898;6.992;2022-12-20T02:44:06;9.90;99.90
61201;DHT22;47065;52.898;6.992;2022-12-20T02:47:12;9.90;99.90
61201;DHT22;47065;52.898;6.992;2022-12-20T02:49:39;9.90;99.90
61201;DHT22;47065;52.898;6.992;2022-12-20T02:52:08;9.90;99.90
61201;DHT22;47065;52.898;6.992;2022-12-20T02:54:36;9.90;99.90
61201;DHT22;47065;52.898;6.992;2022-12-20T02:57:20;10.00;99.90
61201;DHT22;47065;52.898;6.992;2022-12-20T03:02:32;10.00;99.90
61201;DHT22;47065;52.898;6.992;2022-12-20T03:05:17;9.90;99.90
61201;DHT22;47065;52.898;6.992;2022-12-20T03:07:44;9.90;99.90
61201;DHT22;47065;52.898;6.992;2022-12-20T03:10:10;9.90;99.90
61201;DHT22;47065;52.898;6.992;2022-12-20T03:12:36;9.90;99.90
61201;DHT22;47065;52.898;6.992;2022-12-20T03:15:01;9.90;99.90
61201;DHT22;47065;52.898;6.992;2022-12-20T03:17:27;9.80;99.90
61201;DHT22;47065;52.898;6.992;2022-12-20T03:19:52;9.90;99.90
61201;DHT22;47065;52.898;6.992;2022-12-20T03:22:18;9.90;99.90
61201;DHT22;47065;52.898;6.992;2022-12-20T03:24:44;9.90;99.90
61201;DHT22;47065;52.898;6.992;2022-12-20T03:27:09;9.90;99.90
61201;DHT22;47065;52.898;6.992;2022-12-20T03:29:35;9.80;99.90
61201;DHT22;47065;52.898;6.992;2022-12-20T03:32:01;9.80;99.90
61201;DHT22;47065;52.898;6.992;2022-12-20T03:34:26;9.80;99.90
61201;DHT22;47065;52.898;6.992;2022-12-20T03:36:52;9.80;99.90
61201;DHT22;47065;52.898;6.992;2022-12-20T03:39:18;9.80;99.90
61201;DHT22;47065;52.898;6.992;2022-12-20T03:41:43;9.70;99.90
61201;DHT22;47065;52.898;6.992;2022-12-20T03:44:09;9.70;99.90
61201;DHT22;47065;52.898;6.992;2022-12-20T03:46:35;9.70;99.90
61201;DHT22;47065;52.898;6.992;2022-12-20T03:49:00;9.70;99.90
61201;DHT22;47065;52.898;6.992;2022-12-20T03:51:26;9.70;99.90
61201;DHT22;47065;52.898;6.992;2022-12-20T03:53:51;9.70;99.90
61201;DHT22;47065;52.898;6.992;2022-12-20T03:56:17;9.60;99.90
61201;DHT22;47065;52.898;6.992;2022-12-20T03:58:43;9.60;99.90
61201;DHT22;47065;52.898;6.992;2022-12-20T04:01:20;9.70;99.90
61201;DHT22;47065;52.898;6.992;2022-12-20T04:03:46;9.60;99.90
61201;DHT22;47065;52.898;6.992;2022-12-20T04:06:12;9.60;99.90
61201;DHT22;47065;52.898;6.992;2022-12-20T04:08:37;9.60;99.90
61201;DHT22;47065;52.898;6.992;2022-12-20T04:11:03;9.60;99.90
61201;DHT22;47065;52.898;6.992;2022-12-20T04:13:41;9.60;99.90
61201;DHT22;47065;52.898;6.992;2022-12-20T04:16:07;9.60;99.90
61201;DHT22;47065;52.898;6.992;2022-12-20T04:18:33;9.60;99.90
61201;DHT22;47065;52.898;6.992;2022-12-20T04:20:59;9.60;99.90
61201;DHT22;47065;52.898;6.992;2022-12-20T04:23:25;9.60;99.90
61201;DHT22;47065;52.898;6.992;2022-12-20T04:25:51;9.60;99.90
61201;DHT22;47065;52.898;6.992;2022-12-20T04:28:17;9.60;99.90
61201;DHT22;47065;52.898;6.992;2022-12-20T04:30:42;9.70;99.90
61201;DHT22;47065;52.898;6.992;2022-12-20T04:33:08;9.60;99.90
61201;DHT22;47065;52.898;6.992;2022-12-20T04:35:34;9.60;99.90
61201;DHT22;47065;52.898;6.992;2022-12-20T04:38:00;9.60;99.90
61201;DHT22;47065;52.898;6.992;2022-12-20T04:40:26;9.60;99.90
61201;DHT22;47065;52.898;6.992;2022-12-20T04:42:51;9.60;99.90
61201;DHT22;47065;52.898;6.992;2022-12-20T04:45:17;9.70;99.90
61201;DHT22;47065;52.898;6.992;2022-12-20T04:47:43;9.60;99.90
61201;DHT22;47065;52.898;6.992;2022-12-20T04:50:08;9.60;99.90
61201;DHT22;47065;52.898;6.992;2022-12-20T04:52:34;9.60;99.90
61201;DHT22;47065;52.898;6.992;2022-12-20T04:55:18;9.60;99.90
61201;DHT22;47065;52.898;6.992;2022-12-20T04:57:44;9.60;99.90
61201;DHT22;47065;52.898;6.992;2022-12-20T05:00:10;9.70;99.90
61201;DHT22;47065;52.898;6.992;2022-12-20T05:02:36;9.60;99.90
61201;DHT22;47065;52.898;6.992;2022-12-20T05:05:02;9.60;99.90
61201;DHT22;47065;52.898;6.992;2022-12-20T05:07:27;9.70;99.90
61201;DHT22;47065;52.898;6.992;2022-12-20T05:09:53;9.70;99.90
61201;DHT22;47065;52.898;6.992;2022-12-20T05:12:18;9.70;99.90
61201;DHT22;47065;52.898;6.992;2022-12-20T05:14:44;9.80;99.90
61201;DHT22;47065;52.898;6.992;2022-12-20T05:17:10;9.80;99.90
61201;DHT22;47065;52.898;6.992;2022-12-20T05:19:35;9.80;99.90
61201;DHT22;47065;52.898;6.992;2022-12-20T05:22:01;9.80;99.90
61201;DHT22;47065;52.898;6.992;2022-12-20T05:24:45;9.80;99.90
61201;DHT22;47065;52.898;6.992;2022-12-20T05:27:29;9.90;99.90
61201;DHT22;47065;52.898;6.992;2022-12-20T05:29:55;10.00;99.90
61201;DHT22;47065;52.898;6.992;2022-12-20T05:32:20;10.00;99.90
61201;DHT22;47065;52.898;6.992;2022-12-20T05:34:46;10.00;99.90
61201;DHT22;47065;52.898;6.992;2022-12-20T05:37:11;10.10;99.90
61201;DHT22;47065;52.898;6.992;2022-12-20T05:39:37;10.10;99.90
61201;DHT22;47065;52.898;6.992;2022-12-20T05:42:03;10.10;99.90
61201;DHT22;47065;52.898;6.992;2022-12-20T05:44:29;10.10;99.90
61201;DHT22;47065;52.898;6.992;2022-12-20T05:46:54;10.10;99.90
61201;DHT22;47065;52.898;6.992;2022-12-20T05:49:20;10.20;99.90
61201;DHT22;47065;52.898;6.992;2022-12-20T05:51:45;10.30;99.90
61201;DHT22;47065;52.898;6.992;2022-12-20T05:54:11;10.30;99.90
61201;DHT22;47065;52.898;6.992;2022-12-20T05:56:37;10.30;99.90
61201;DHT22;47065;52.898;6.992;2022-12-20T05:59:02;10.40;99.90
61201;DHT22;47065;52.898;6.992;2022-12-20T06:01:28;10.40;99.90
61201;DHT22;47065;52.898;6.992;2022-12-20T06:03:54;10.40;99.90
61201;DHT22;47065;52.898;6.992;2022-12-20T06:06:19;10.40;99.90
61201;DHT22;47065;52.898;6.992;2022-12-20T06:08:45;10.40;99.90
61201;DHT22;47065;52.898;6.992;2022-12-20T06:11:10;10.40;99.90
61201;DHT22;47065;52.898;6.992;2022-12-20T06:13:36;10.40;99.90
61201;DHT22;47065;52.898;6.992;2022-12-20T06:16:02;10.50;99.90
61201;DHT22;47065;52.898;6.992;2022-12-20T06:18:27;10.50;99.90
61201;DHT22;47065;52.898;6.992;2022-12-20T06:20:53;10.50;99.90
61201;DHT22;47065;52.898;6.992;2022-12-20T06:23:19;10.50;99.90
61201;DHT22;47065;52.898;6.992;2022-12-20T06:25:45;10.50;99.90
61201;DHT22;47065;52.898;6.992;2022-12-20T06:28:11;10.60;99.90
61201;DHT22;47065;52.898;6.992;2022-12-20T06:30:37;10.60;99.90
61201;DHT22;47065;52.898;6.992;2022-12-20T06:33:03;10.60;99.90
61201;DHT22;47065;52.898;6.992;2022-12-20T06:35:29;10.60;99.90
61201;DHT22;47065;52.898;6.992;2022-12-20T06:37:55;10.60;99.90
61201;DHT22;47065;52.898;6.992;2022-12-20T06:40:21;10.60;99.90
61201;DHT22;47065;52.898;6.992;2022-12-20T06:42:47;10.60;99.90
61201;DHT22;47065;52.898;6.992;2022-12-20T06:45:14;10.60;99.90
61201;DHT22;47065;52.898;6.992;2022-12-20T06:47:40;10.70;99.90
61201;DHT22;47065;52.898;6.992;2022-12-20T06:50:07;10.70;99.90
61201;DHT22;47065;52.898;6.992;2022-12-20T06:52:32;10.70;99.90
61201;DHT22;47065;52.898;6.992;2022-12-20T06:54:58;10.70;99.90
61201;DHT22;47065;52.898;6.992;2022-12-20T06:57:24;10.70;99.90
61201;DHT22;47065;52.898;6.992;2022-12-20T06:59:49;10.70;99.90
61201;DHT22;47065;52.898;6.992;2022-12-20T07:02:15;10.60;99.90
61201;DHT22;47065;52.898;6.992;2022-12-20T07:04:41;10.60;99.90
61201;DHT22;47065;52.898;6.992;2022-12-20T07:07:07;10.50;99.90
61201;DHT22;47065;52.898;6.992;2022-12-20T07:09:32;10.50;99.90
61201;DHT22;47065;52.898;6.992;2022-12-20T07:11:58;10.40;99.90
61201;DHT22;47065;52.898;6.992;2022-12-20T07:14:24;10.40;99.90
61201;DHT22;47065;52.898;6.992;2022-12-20T07:16:50;10.30;99.90
61201;DHT22;47065;52.898;6.992;2022-12-20T07:19:16;10.30;99.90
61201;DHT22;47065;52.898;6.992;2022-12-20T07:21:42;10.20;99.90
61201;DHT22;47065;52.898;6.992;2022-12-20T07:24:08;10.20;99.90
61201;DHT22;47065;52.898;6.992;2022-12-20T07:26:34;10.20;99.90
61201;DHT22;47065;52.898;6.992;2022-12-20T07:29:00;10.10;99.90
61201;DHT22;47065;52.898;6.992;2022-12-20T07:31:26;10.10;99.90
61201;DHT22;47065;52.898;6.992;2022-12-20T07:33:52;10.20;99.90
61201;DHT22;47065;52.898;6.992;2022-12-20T07:36:17;10.20;99.90
61201;DHT22;47065;52.898;6.992;2022-12-20T07:38:43;10.20;99.90
61201;DHT22;47065;52.898;6.992;2022-12-20T07:41:10;10.20;99.90
61201;DHT22;47065;52.898;6.992;2022-12-20T07:43:36;10.10;99.90
61201;DHT22;47065;52.898;6.992;2022-12-20T07:46:03;10.10;99.90
61201;DHT22;47065;52.898;6.992;2022-12-20T07:48:30;10.10;99.90
61201;DHT22;47065;52.898;6.992;2022-12-20T07:50:59;10.10;99.90
61201;DHT22;47065;52.898;6.992;2022-12-20T07:53:28;10.10;99.90
61201;DHT22;47065;52.898;6.992;2022-12-20T07:55:56;10.10;99.90
61201;DHT22;47065;52.898;6.992;2022-12-20T07:58:22;10.10;99.90
61201;DHT22;47065;52.898;6.992;2022-12-20T08:00:48;10.20;99.90
61201;DHT22;47065;52.898;6.992;2022-12-20T08:03:20;10.20;99.90
61201;DHT22;47065;52.898;6.992;2022-12-20T08:05:52;10.20;99.90
61201;DHT22;47065;52.898;6.992;2022-12-20T08:08:19;10.20;99.90
61201;DHT22;47065;52.898;6.992;2022-12-20T08:10:45;10.20;99.90
61201;DHT22;47065;52.898;6.992;2022-12-20T08:13:11;10.20;99.90
61201;DHT22;47065;52.898;6.992;2022-12-20T08:15:37;10.20;99.90
61201;DHT22;47065;52.898;6.992;2022-12-20T08:18:03;10.20;99.90
61201;DHT22;47065;52.898;6.992;2022-12-20T08:20:31;10.20;99.90
61201;DHT22;47065;52.898;6.992;2022-12-20T08:22:56;10.20;99.90
61201;DHT22;47065;52.898;6.992;2022-12-20T08:25:22;10.20;99.90
61201;DHT22;47065;52.898;6.992;2022-12-20T08:27:48;10.20;99.90
61201;DHT22;47065;52.898;6.992;2022-12-20T08:30:14;10.20;99.90
61201;DHT22;47065;52.898;6.992;2022-12-20T08:32:40;10.30;99.90
61201;DHT22;47065;52.898;6.992;2022-12-20T08:35:06;10.30;99.90
61201;DHT22;47065;52.898;6.992;2022-12-20T08:37:32;10.40;99.90
61201;DHT22;47065;52.898;6.992;2022-12-20T08:39:58;10.40;99.90
61201;DHT22;47065;52.898;6.992;2022-12-20T08:42:28;10.40;99.90
61201;DHT22;47065;52.898;6.992;2022-12-20T08:44:54;10.40;99.90
61201;DHT22;47065;52.898;6.992;2022-12-20T08:47:20;10.50;99.90
61201;DHT22;47065;52.898;6.992;2022-12-20T08:49:45;10.50;99.90
61201;DHT22;47065;52.898;6.992;2022-12-20T08:52:11;10.50;99.90
61201;DHT22;47065;52.898;6.992;2022-12-20T08:54:37;10.60;99.90
61201;DHT22;47065;52.898;6.992;2022-12-20T08:57:03;10.60;99.90
61201;DHT22;47065;52.898;6.992;2022-12-20T08:59:28;10.60;99.90
61201;DHT22;47065;52.898;6.992;2022-12-20T09:01:54;10.60;99.90
61201;DHT22;47065;52.898;6.992;2022-12-20T09:04:20;10.70;99.90
61201;DHT22;47065;52.898;6.992;2022-12-20T09:06:46;10.70;99.90
61201;DHT22;47065;52.898;6.992;2022-12-20T09:09:12;10.80;99.90
61201;DHT22;47065;52.898;6.992;2022-12-20T09:11:38;10.80;99.90
61201;DHT22;47065;52.898;6.992;2022-12-20T09:14:04;10.80;99.90
61201;DHT22;47065;52.898;6.992;2022-12-20T09:16:31;10.90;99.90
61201;DHT22;47065;52.898;6.992;2022-12-20T09:18:59;10.90;99.90
61201;DHT22;47065;52.898;6.992;2022-12-20T09:21:25;10.90;99.90
61201;DHT22;47065;52.898;6.992;2022-12-20T09:23:55;10.90;99.90
61201;DHT22;47065;52.898;6.992;2022-12-20T09:26:22;11.00;99.90
61201;DHT22;47065;52.898;6.992;2022-12-20T09:28:49;11.10;99.90
61201;DHT22;47065;52.898;6.992;2022-12-20T09:31:17;11.10;99.90
61201;DHT22;47065;52.898;6.992;2022-12-20T09:33:44;11.20;99.90
61201;DHT22;47065;52.898;6.992;2022-12-20T09:36:17;11.20;99.90
61201;DHT22;47065;52.898;6.992;2022-12-20T09:38:44;11.10;99.90
61201;DHT22;47065;52.898;6.992;2022-12-20T09:41:28;11.10;99.90
61201;DHT22;47065;52.898;6.992;2022-12-20T09:43:54;11.10;99.90
61201;DHT22;47065;52.898;6.992;2022-12-20T09:46:22;11.10;99.90
61201;DHT22;47065;52.898;6.992;2022-12-20T09:48:50;11.10;99.90
61201;DHT22;47065;52.898;6.992;2022-12-20T09:51:55;11.00;99.90
61201;DHT22;47065;52.898;6.992;2022-12-20T09:54:41;11.00;99.90
61201;DHT22;47065;52.898;6.992;2022-12-20T09:59:42;11.00;99.90
61201;DHT22;47065;52.898;6.992;2022-12-20T10:02:11;10.90;99.90
61201;DHT22;47065;52.898;6.992;2022-12-20T10:04:37;11.00;99.90
61201;DHT22;47065;52.898;6.992;2022-12-20T10:08:09;11.00;99.90
61201;DHT22;47065;52.898;6.992;2022-12-20T10:13:37;11.00;99.90
61201;DHT22;47065;52.898;6.992;2022-12-20T10:16:14;11.00;99.90
61201;DHT22;47065;52.898;6.992;2022-12-20T10:24:36;10.90;99.90
61201;DHT22;47065;52.898;6.992;2022-12-20T10:27:14;10.80;99.90
61201;DHT22;47065;52.898;6.992;2022-12-20T10:29:42;10.70;99.90
61201;DHT22;47065;52.898;6.992;2022-12-20T10:32:14;10.60;99.90
61201;DHT22;47065;52.898;6.992;2022-12-20T10:35:15;10.50;99.90
61201;DHT22;47065;52.898;6.992;2022-12-20T10:38:05;10.50;99.90
61201;DHT22;47065;52.898;6.992;2022-12-20T10:42:57;10.30;99.90
61201;DHT22;47065;52.898;6.992;2022-12-20T10:45:37;10.20;99.90
61201;DHT22;47065;52.898;6.992;2022-12-20T10:48:21;10.20;99.90
61201;DHT22;47065;52.898;6.992;2022-12-20T10:53:27;10.10;99.90
61201;DHT22;47065;52.898;6.992;2022-12-20T10:56:07;10.10;99.90
61201;DHT22;47065;52.898;6.992;2022-12-20T10:58:36;10.10;99.90
61201;DHT22;47065;52.898;6.992;2022-12-20T11:01:14;10.10;99.90
61201;DHT22;47065;52.898;6.992;2022-12-20T11:06:18;10.00;99.90
61201;DHT22;47065;52.898;6.992;2022-12-20T11:08:44;10.00;99.90
61201;DHT22;47065;52.898;6.992;2022-12-20T11:11:17;10.00;99.90
61201;DHT22;47065;52.898;6.992;2022-12-20T11:13:44;10.00;99.90
61201;DHT22;47065;52.898;6.992;2022-12-20T11:16:34;10.00;99.90
61201;DHT22;47065;52.898;6.992;2022-12-20T11:19:20;10.00;99.90
61201;DHT22;47065;52.898;6.992;2022-12-20T11:22:04;10.00;99.90
61201;DHT22;47065;52.898;6.992;2022-12-20T11:24:41;10.00;99.90
61201;DHT22;47065;52.898;6.992;2022-12-20T11:38:04;10.10;99.90
61201;DHT22;47065;52.898;6.992;2022-12-20T11:51:26;10.30;99.90
61201;DHT22;47065;52.898;6.992;2022-12-20T11:53:59;10.30;99.90
61201;DHT22;47065;52.898;6.992;2022-12-20T11:56:49;10.30;99.90
61201;DHT22;47065;52.898;6.992;2022-12-20T12:04:52;10.30;99.90
61201;DHT22;47065;52.898;6.992;2022-12-20T12:07:31;10.20;99.90
61201;DHT22;47065;52.898;6.992;2022-12-20T12:10:12;10.20;99.90
61201;DHT22;47065;52.898;6.992;2022-12-20T12:17:58;10.20;99.90
61201;DHT22;47065;52.898;6.992;2022-12-20T12:25:50;10.20;99.90
61201;DHT22;47065;52.898;6.992;2022-12-20T12:28:17;10.20;99.90
61201;DHT22;47065;52.898;6.992;2022-12-20T12:30:49;10.20;99.90
61201;DHT22;47065;52.898;6.992;2022-12-20T12:33:24;10.20;99.90
61201;DHT22;47065;52.898;6.992;2022-12-20T12:39:23;10.20;99.90
61201;DHT22;47065;52.898;6.992;2022-12-20T12:44:52;10.20;99.90
61201;DHT22;47065;52.898;6.992;2022-12-20T12:47:28;10.20;99.90
61201;DHT22;47065;52.898;6.992;2022-12-20T12:49:57;10.20;99.90
61201;DHT22;47065;52.898;6.992;2022-12-20T12:52:45;10.20;99.90
61201;DHT22;47065;52.898;6.992;2022-12-20T13:00:50;10.20;99.90
61201;DHT22;47065;52.898;6.992;2022-12-20T13:11:34;10.20;99.90
61201;DHT22;47065;52.898;6.992;2022-12-20T13:16:46;10.20;99.90
61201;DHT22;47065;52.898;6.992;2022-12-20T13:19:17;10.20;99.90
61201;DHT22;47065;52.898;6.992;2022-12-20T13:21:47;10.20;99.90
61201;DHT22;47065;52.898;6.992;2022-12-20T13:43:52;10.20;99.90
61201;DHT22;47065;52.898;6.992;2022-12-20T13:46:30;10.20;99.90
61201;DHT22;47065;52.898;6.992;2022-12-20T13:49:01;10.20;99.90
61201;DHT22;47065;52.898;6.992;2022-12-20T13:51:28;10.20;99.90
61201;DHT22;47065;52.898;6.992;2022-12-20T13:54:00;10.20;99.90
61201;DHT22;47065;52.898;6.992;2022-12-20T13:58:58;10.20;99.90
61201;DHT22;47065;52.898;6.992;2022-12-20T14:01:27;10.20;99.90
61201;DHT22;47065;52.898;6.992;2022-12-20T14:03:53;10.20;99.90
61201;DHT22;47065;52.898;6.992;2022-12-20T14:06:20;10.20;99.90
61201;DHT22;47065;52.898;6.992;2022-12-20T14:08:49;10.10;99.90
61201;DHT22;47065;52.898;6.992;2022-12-20T14:13:41;10.20;99.90
61201;DHT22;47065;52.898;6.992;2022-12-20T14:16:27;10.20;99.90
61201;DHT22;47065;52.898;6.992;2022-12-20T14:19:13;10.20;99.90
61201;DHT22;47065;52.898;6.992;2022-12-20T14:21:43;10.20;99.90
61201;DHT22;47065;52.898;6.992;2022-12-20T14:24:32;10.20;99.90
61201;DHT22;47065;52.898;6.992;2022-12-20T14:26:58;10.20;99.90
61201;DHT22;47065;52.898;6.992;2022-12-20T14:29:29;10.20;99.90
61201;DHT22;47065;52.898;6.992;2022-12-20T14:31:56;10.20;99.90
61201;DHT22;47065;52.898;6.992;2022-12-20T14:34:26;10.20;99.90
61201;DHT22;47065;52.898;6.992;2022-12-20T14:37:16;10.20;99.90
61201;DHT22;47065;52.898;6.992;2022-12-20T14:42:38;10.20;99.90
61201;DHT22;47065;52.898;6.992;2022-12-20T14:48:04;10.20;99.90
61201;DHT22;47065;52.898;6.992;2022-12-20T14:50:36;10.30;99.90
61201;DHT22;47065;52.898;6.992;2022-12-20T14:53:03;10.30;99.90
61201;DHT22;47065;52.898;6.992;2022-12-20T14:55:38;10.30;99.90
61201;DHT22;47065;52.898;6.992;2022-12-20T14:58:28;10.30;99.90
61201;DHT22;47065;52.898;6.992;2022-12-20T15:03:28;10.30;99.90
61201;DHT22;47065;52.898;6.992;2022-12-20T15:05:57;10.30;99.90
61201;DHT22;47065;52.898;6.992;2022-12-20T15:08:33;10.30;99.90
61201;DHT22;47065;52.898;6.992;2022-12-20T15:13:45;10.30;99.90
61201;DHT22;47065;52.898;6.992;2022-12-20T15:16:15;10.30;99.90
61201;DHT22;47065;52.898;6.992;2022-12-20T15:18:41;10.30;99.90
61201;DHT22;47065;52.898;6.992;2022-12-20T15:21:16;10.30;99.90
61201;DHT22;47065;52.898;6.992;2022-12-20T15:23:49;10.30;99.90
61201;DHT22;47065;52.898;6.992;2022-12-20T15:26:18;10.30;99.90
61201;DHT22;47065;52.898;6.992;2022-12-20T15:28:45;10.30;99.90
61201;DHT22;47065;52.898;6.992;2022-12-20T15:31:12;10.30;99.90
61201;DHT22;47065;52.898;6.992;2022-12-20T15:33:39;10.30;99.90
61201;DHT22;47065;52.898;6.992;2022-12-20T15:36:08;10.40;99.90
61201;DHT22;47065;52.898;6.992;2022-12-20T15:38:38;10.40;99.90
61201;DHT22;47065;52.898;6.992;2022-12-20T15:41:04;10.40;99.90
61201;DHT22;47065;52.898;6.992;2022-12-20T15:43:36;10.40;99.90
61201;DHT22;47065;52.898;6.992;2022-12-20T15:46:03;10.40;99.90
61201;DHT22;47065;52.898;6.992;2022-12-20T15:48:29;10.40;99.90
61201;DHT22;47065;52.898;6.992;2022-12-20T15:50:57;10.40;99.90
61201;DHT22;47065;52.898;6.992;2022-12-20T15:53:26;10.40;99.90
61201;DHT22;47065;52.898;6.992;2022-12-20T15:55:54;10.40;99.90
61201;DHT22;47065;52.898;6.992;2022-12-20T15:58:21;10.40;99.90
61201;DHT22;47065;52.898;6.992;2022-12-20T16:00:48;10.40;99.90
61201;DHT22;47065;52.898;6.992;2022-12-20T16:03:18;10.30;99.90
61201;DHT22;47065;52.898;6.992;2022-12-20T16:05:49;10.30;99.90
61201;DHT22;47065;52.898;6.992;2022-12-20T16:08:16;10.30;99.90
61201;DHT22;47065;52.898;6.992;2022-12-20T16:10:47;10.30;99.90
61201;DHT22;47065;52.898;6.992;2022-12-20T16:13:20;10.30;99.90
61201;DHT22;47065;52.898;6.992;2022-12-20T16:15:46;10.30;99.90
61201;DHT22;47065;52.898;6.992;2022-12-20T16:18:11;10.30;99.90
61201;DHT22;47065;52.898;6.992;2022-12-20T16:20:37;10.30;99.90
61201;DHT22;47065;52.898;6.992;2022-12-20T16:23:04;10.30;99.90
61201;DHT22;47065;52.898;6.992;2022-12-20T16:25:34;10.30;99.90
61201;DHT22;47065;52.898;6.992;2022-12-20T16:28:00;10.30;99.90
61201;DHT22;47065;52.898;6.992;2022-12-20T16:30:27;10.30;99.90
61201;DHT22;47065;52.898;6.992;2022-12-20T16:32:52;10.30;99.90
61201;DHT22;47065;52.898;6.992;2022-12-20T16:35:27;10.30;99.90
61201;DHT22;47065;52.898;6.992;2022-12-20T16:37:55;10.30;99.90
61201;DHT22;47065;52.898;6.992;2022-12-20T16:40:23;10.30;99.90
61201;DHT22;47065;52.898;6.992;2022-12-20T16:42:49;10.30;99.90
61201;DHT22;47065;52.898;6.992;2022-12-20T16:45:18;10.30;99.90
61201;DHT22;47065;52.898;6.992;2022-12-20T16:47:48;10.30;99.90
61201;DHT22;47065;52.898;6.992;2022-12-20T16:50:15;10.30;99.90
61201;DHT22;47065;52.898;6.992;2022-12-20T16:52:41;10.30;99.90
61201;DHT22;47065;52.898;6.992;2022-12-20T16:55:15;10.30;99.90
61201;DHT22;47065;52.898;6.992;2022-12-20T16:57:42;10.30;99.90
61201;DHT22;47065;52.898;6.992;2022-12-20T17:00:14;10.30;99.90
61201;DHT22;47065;52.898;6.992;2022-12-20T17:02:41;10.30;99.90
61201;DHT22;47065;52.898;6.992;2022-12-20T17:05:24;10.30;99.90
61201;DHT22;47065;52.898;6.992;2022-12-20T17:07:50;10.30;99.90
61201;DHT22;47065;52.898;6.992;2022-12-20T17:10:16;10.30;99.90
61201;DHT22;47065;52.898;6.992;2022-12-20T17:12:43;10.30;99.90
61201;DHT22;47065;52.898;6.992;2022-12-20T17:15:21;10.30;99.90
61201;DHT22;47065;52.898;6.992;2022-12-20T17:17:48;10.30;99.90
61201;DHT22;47065;52.898;6.992;2022-12-20T17:20:14;10.30;99.90
61201;DHT22;47065;52.898;6.992;2022-12-20T17:22:40;10.30;99.90
61201;DHT22;47065;52.898;6.992;2022-12-20T17:27:44;10.30;99.90
61201;DHT22;47065;52.898;6.992;2022-12-20T17:30:10;10.30;99.90
61201;DHT22;47065;52.898;6.992;2022-12-20T17:32:36;10.30;99.90
61201;DHT22;47065;52.898;6.992;2022-12-20T17:35:02;10.30;99.90
61201;DHT22;47065;52.898;6.992;2022-12-20T17:37:28;10.30;99.90
61201;DHT22;47065;52.898;6.992;2022-12-20T17:39:54;10.30;99.90
61201;DHT22;47065;52.898;6.992;2022-12-20T17:42:19;10.30;99.90
61201;DHT22;47065;52.898;6.992;2022-12-20T17:44:45;10.30;99.90
61201;DHT22;47065;52.898;6.992;2022-12-20T17:47:11;10.30;99.90
61201;DHT22;47065;52.898;6.992;2022-12-20T17:49:36;10.20;99.90
61201;DHT22;47065;52.898;6.992;2022-12-20T17:52:02;10.30;99.90
61201;DHT22;47065;52.898;6.992;2022-12-20T17:54:28;10.30;99.90
61201;DHT22;47065;52.898;6.992;2022-12-20T17:56:54;10.20;99.90
61201;DHT22;47065;52.898;6.992;2022-12-20T17:59:21;10.20;99.90
61201;DHT22;47065;52.898;6.992;2022-12-20T18:01:47;10.20;99.90